createdAt,value
2024-03-20T00:00:28.744Z,4.48
2024-03-20T00:02:28.719Z,5.01
2024-03-20T00:05:28.766Z,4.93
2024-03-20T00:07:28.740Z,4.26
2024-03-20T00:09:28.740Z,4.95
2024-03-20T00:11:28.775Z,4.75
2024-03-20T00:14:28.783Z,4.18
2024-03-20T00:16:28.748Z,4.27
2024-03-20T00:18:28.751Z,4.26
2024-03-20T00:20:28.772Z,4.77
2024-03-20T00:23:28.774Z,4.06
2024-03-20T00:25:28.770Z,4.14
2024-03-20T00:27:28.781Z,4.54
2024-03-20T00:29:28.812Z,4.42
2024-03-20T00:31:28.830Z,4.35
2024-03-20T00:33:28.820Z,4.65
2024-03-20T00:35:28.819Z,4.86
2024-03-20T00:37:28.849Z,4.16
2024-03-20T00:39:28.790Z,4.41
2024-03-20T00:41:28.802Z,3.96
2024-03-20T00:43:28.840Z,4.82
2024-03-20T00:45:28.819Z,4.57
2024-03-20T00:48:28.822Z,4.83
2024-03-20T00:50:28.843Z,4.21
2024-03-20T00:52:35.278Z,5.39
2024-03-20T00:53:28.828Z,4.32
2024-03-20T00:55:28.891Z,4.59
2024-03-20T00:57:28.887Z,3.96
2024-03-20T00:59:28.889Z,4.75
2024-03-20T01:01:28.868Z,4.38
2024-03-20T01:03:28.901Z,4.22
2024-03-20T01:06:28.878Z,3.81
2024-03-20T01:09:28.891Z,3.75
2024-03-20T01:11:28.922Z,3.97
2024-03-20T01:13:28.931Z,3.84
2024-03-20T01:15:28.941Z,3.80
2024-03-20T01:17:28.928Z,4.02
2024-03-20T01:19:28.921Z,3.83
2024-03-20T01:23:28.968Z,4.20
2024-03-20T01:25:28.956Z,4.44
2024-03-20T01:28:29.002Z,5.05
2024-03-20T01:31:29.010Z,5.46
2024-03-20T01:35:28.950Z,7.80
2024-03-20T01:37:28.966Z,5.84
2024-03-20T01:40:28.952Z,4.77
2024-03-20T01:42:28.959Z,5.18
2024-03-20T01:44:29.026Z,4.71
2024-03-20T01:46:29.001Z,4.81
2024-03-20T01:48:28.978Z,4.69
2024-03-20T01:50:29.001Z,4.58
2024-03-20T01:53:28.990Z,4.87
2024-03-20T01:58:29.021Z,4.57
2024-03-20T02:00:29.034Z,4.62
2024-03-20T02:02:29.060Z,4.49
2024-03-20T02:07:29.071Z,4.51
2024-03-20T02:10:29.059Z,4.43
2024-03-20T02:12:29.105Z,5.08
2024-03-20T02:15:29.117Z,4.47
2024-03-20T02:18:29.101Z,3.91
2024-03-20T02:20:29.087Z,3.77
2024-03-20T02:22:29.106Z,3.26
2024-03-20T02:24:29.080Z,3.21
2024-03-20T02:26:29.102Z,3.51
2024-03-20T02:28:29.115Z,3.35
2024-03-20T02:30:29.160Z,4.12
2024-03-20T02:33:29.135Z,3.55
2024-03-20T02:35:29.117Z,4.11
2024-03-20T02:37:29.244Z,3.69
2024-03-20T02:39:29.124Z,3.74
2024-03-20T02:42:29.106Z,4.12
2024-03-20T02:44:29.118Z,4.48
2024-03-20T02:46:29.127Z,3.96
2024-03-20T02:48:29.179Z,4.34
2024-03-20T02:50:29.173Z,3.90
2024-03-20T02:53:29.189Z,3.56
2024-03-20T02:55:29.128Z,3.73
2024-03-20T02:57:29.192Z,4.63
2024-03-20T02:59:29.178Z,3.87
2024-03-20T03:01:29.184Z,3.95
2024-03-20T03:03:29.198Z,4.56
2024-03-20T03:05:29.172Z,5.03
2024-03-20T03:07:29.194Z,4.31
2024-03-20T03:09:29.274Z,4.77
2024-03-20T03:11:29.212Z,4.00
2024-03-20T03:13:29.220Z,3.98
2024-03-20T03:15:29.238Z,4.17
2024-03-20T03:17:29.206Z,4.55
2024-03-20T03:19:29.244Z,4.22
2024-03-20T03:22:29.204Z,4.26
2024-03-20T03:24:29.302Z,4.52
2024-03-20T03:26:29.244Z,4.23
2024-03-20T03:28:29.232Z,3.35
2024-03-20T03:30:29.256Z,4.50
2024-03-20T03:32:29.268Z,4.57
2024-03-20T03:34:29.264Z,4.08
2024-03-20T03:36:29.440Z,4.13
2024-03-20T03:41:29.242Z,4.11
2024-03-20T03:45:29.375Z,4.80
2024-03-20T03:47:29.304Z,4.20
2024-03-20T03:49:29.304Z,4.42
2024-03-20T03:51:29.332Z,4.30
2024-03-20T03:54:29.331Z,4.66
2024-03-20T03:56:29.305Z,4.69
2024-03-20T03:58:29.298Z,4.58
2024-03-20T04:03:29.328Z,4.89
2024-03-20T04:05:29.344Z,4.65
2024-03-20T04:08:29.358Z,5.07
2024-03-20T04:10:29.361Z,4.58
2024-03-20T04:12:29.364Z,4.30
2024-03-20T04:14:29.323Z,4.61
2024-03-20T04:16:29.324Z,4.42
2024-03-20T04:18:29.406Z,5.27
2024-03-20T04:21:29.389Z,4.45
2024-03-20T04:23:29.417Z,4.56
2024-03-20T04:26:29.363Z,4.65
2024-03-20T04:30:29.441Z,6.12
2024-03-20T04:32:29.387Z,6.11
2024-03-20T04:34:29.369Z,5.47
2024-03-20T04:36:29.474Z,4.86
2024-03-20T04:40:29.403Z,4.66
2024-03-20T04:42:29.425Z,4.83
2024-03-20T04:44:29.454Z,5.12
2024-03-20T04:47:29.423Z,4.43
2024-03-20T04:49:29.450Z,4.38
2024-03-20T04:51:29.466Z,4.62
2024-03-20T04:54:29.481Z,4.54
2024-03-20T04:56:29.485Z,4.24
2024-03-20T04:58:29.424Z,5.32
2024-03-20T05:00:29.448Z,4.99
2024-03-20T05:02:29.507Z,4.06
2024-03-20T05:05:29.474Z,4.49
2024-03-20T05:07:29.494Z,4.55
2024-03-20T05:09:29.520Z,4.96
2024-03-20T05:11:29.469Z,4.00
2024-03-20T05:15:29.540Z,4.51
2024-03-20T05:17:29.530Z,4.63
2024-03-20T05:19:29.488Z,4.44
2024-03-20T05:21:29.537Z,4.36
2024-03-20T05:23:29.506Z,4.63
2024-03-20T05:25:29.540Z,5.29
2024-03-20T05:27:29.619Z,5.09
2024-03-20T05:30:29.569Z,4.74
2024-03-20T05:33:29.538Z,5.31
2024-03-20T05:35:29.571Z,5.01
2024-03-20T05:37:29.564Z,4.62
2024-03-20T05:39:29.549Z,4.86
2024-03-20T05:41:29.541Z,4.99
2024-03-20T05:44:29.915Z,5.17
2024-03-20T05:46:29.547Z,5.04
2024-03-20T05:48:29.633Z,5.20
2024-03-20T05:51:29.602Z,5.53
2024-03-20T05:54:29.601Z,4.33
2024-03-20T05:57:29.644Z,4.58
2024-03-20T05:59:29.592Z,4.74
2024-03-20T06:02:29.603Z,4.84
2024-03-20T06:04:29.616Z,4.71
2024-03-20T06:06:29.649Z,4.36
2024-03-20T06:09:29.643Z,4.18
2024-03-20T06:11:29.647Z,4.87
2024-03-20T06:13:29.676Z,4.58
2024-03-20T06:15:29.638Z,4.88
2024-03-20T06:17:29.644Z,4.60
2024-03-20T06:19:29.667Z,4.43
2024-03-20T06:21:29.702Z,5.17
2024-03-20T06:23:29.640Z,4.43
2024-03-20T06:25:29.685Z,4.50
2024-03-20T06:27:29.709Z,4.51
2024-03-20T06:29:29.697Z,5.26
2024-03-20T06:31:29.709Z,4.86
2024-03-20T06:33:29.667Z,5.03
2024-03-20T06:35:29.691Z,4.57
2024-03-20T06:37:29.733Z,4.89
2024-03-20T06:39:29.720Z,4.91
2024-03-20T06:41:29.696Z,5.32
2024-03-20T06:43:29.700Z,4.71
2024-03-20T06:45:29.724Z,4.62
2024-03-20T06:47:29.794Z,4.94
2024-03-20T06:49:29.705Z,4.16
2024-03-20T06:51:29.708Z,4.04
2024-03-20T06:53:29.787Z,4.23
2024-03-20T06:55:29.780Z,5.51
2024-03-20T06:57:29.776Z,5.33
2024-03-20T06:59:29.747Z,4.37
2024-03-20T07:01:29.752Z,4.31
2024-03-20T07:03:29.806Z,3.86
2024-03-20T07:05:29.775Z,3.85
2024-03-20T07:07:29.759Z,3.16
2024-03-20T07:09:29.760Z,3.22
2024-03-20T07:11:29.838Z,3.20
2024-03-20T07:13:29.801Z,3.56
2024-03-20T07:15:29.756Z,3.37
2024-03-20T07:17:29.776Z,3.46
2024-03-20T07:19:29.874Z,4.40
2024-03-20T07:21:29.841Z,4.82
2024-03-20T07:23:29.789Z,4.50
2024-03-20T07:25:32.565Z,4.83
2024-03-20T07:27:29.794Z,5.26
2024-03-20T07:29:29.870Z,5.59
2024-03-20T07:31:29.869Z,5.23
2024-03-20T07:33:29.809Z,5.01
2024-03-20T07:35:29.837Z,5.71
2024-03-20T07:37:29.884Z,5.81
2024-03-20T07:39:29.871Z,5.71
2024-03-20T07:41:29.835Z,5.83
2024-03-20T07:43:29.923Z,6.58
2024-03-20T07:45:29.851Z,5.85
2024-03-20T07:47:29.895Z,6.18
2024-03-20T07:49:29.913Z,6.81
2024-03-20T07:51:29.859Z,6.08
2024-03-20T07:53:29.891Z,6.25
2024-03-20T07:55:29.929Z,6.15
2024-03-20T07:57:29.929Z,5.96
2024-03-20T07:59:29.915Z,6.11
2024-03-20T08:01:29.959Z,5.86
2024-03-20T08:03:29.895Z,6.25
2024-03-20T08:05:30.002Z,6.57
2024-03-20T08:07:29.979Z,6.04
2024-03-20T08:09:29.916Z,6.12
2024-03-20T08:11:29.918Z,6.35
2024-03-20T08:13:29.967Z,5.65
2024-03-20T08:15:29.971Z,5.85
2024-03-20T08:17:29.972Z,5.78
2024-03-20T08:19:29.949Z,5.52
2024-03-20T08:21:29.972Z,5.95
2024-03-20T08:23:29.955Z,6.11
2024-03-20T08:25:30.021Z,5.61
2024-03-20T08:27:29.965Z,6.59
2024-03-20T08:29:30.024Z,6.32
2024-03-20T08:31:29.996Z,6.01
2024-03-20T08:33:30.052Z,6.94
2024-03-20T08:35:30.003Z,6.13
2024-03-20T08:37:30.000Z,6.29
2024-03-20T08:39:30.001Z,7.06
2024-03-20T08:41:29.988Z,6.92
2024-03-20T08:43:30.039Z,6.88
2024-03-20T08:45:30.057Z,6.48
2024-03-20T08:47:30.042Z,6.30
2024-03-20T08:49:30.070Z,6.59
2024-03-20T08:51:30.148Z,6.38
2024-03-20T08:53:30.050Z,6.22
2024-03-20T08:55:30.094Z,7.25
2024-03-20T08:57:30.051Z,6.41
2024-03-20T08:59:30.090Z,6.49
2024-03-20T09:01:30.103Z,6.80
2024-03-20T09:03:30.070Z,6.55
2024-03-20T09:05:30.081Z,6.35
2024-03-20T09:07:30.124Z,5.88
2024-03-20T09:09:31.889Z,5.70
2024-03-20T09:11:30.132Z,6.57
2024-03-20T09:13:30.129Z,5.22
2024-03-20T09:15:30.119Z,6.09
2024-03-20T09:17:30.172Z,6.38
2024-03-20T09:19:30.093Z,5.88
2024-03-20T09:21:30.131Z,6.57
2024-03-20T09:23:30.181Z,6.21
2024-03-20T09:25:30.171Z,7.39
2024-03-20T09:27:30.191Z,7.61
2024-03-20T09:29:30.152Z,7.61
2024-03-20T09:31:30.140Z,7.80
2024-03-20T09:33:30.152Z,7.22
2024-03-20T09:35:30.376Z,7.84
2024-03-20T09:37:30.159Z,6.98
2024-03-20T09:39:30.175Z,8.07
2024-03-20T09:41:30.234Z,7.83
2024-03-20T09:43:30.201Z,7.92
2024-03-20T09:45:30.233Z,8.53
2024-03-20T09:47:30.211Z,7.65
2024-03-20T09:49:30.183Z,7.10
2024-03-20T09:51:30.238Z,7.67
2024-03-20T09:53:30.226Z,7.49
2024-03-20T09:55:30.212Z,8.12
2024-03-20T09:57:30.194Z,7.91
2024-03-20T09:59:30.204Z,9.41
2024-03-20T10:01:30.270Z,8.93
2024-03-20T10:03:30.255Z,8.78
2024-03-20T10:05:30.246Z,8.49
2024-03-20T10:07:30.285Z,9.23
2024-03-20T10:09:30.284Z,8.62
2024-03-20T10:11:30.285Z,8.91
2024-03-20T10:13:30.250Z,9.42
2024-03-20T10:15:30.275Z,8.73
2024-03-20T10:17:30.274Z,8.16
2024-03-20T10:19:30.301Z,9.15
2024-03-20T10:21:30.332Z,8.56
2024-03-20T10:23:30.274Z,8.99
2024-03-20T10:25:30.277Z,8.51
2024-03-20T10:27:30.332Z,9.55
2024-03-20T10:29:34.432Z,9.22
2024-03-20T10:31:31.040Z,9.00
2024-03-20T10:33:30.303Z,9.37
2024-03-20T10:35:30.300Z,9.10
2024-03-20T10:37:30.348Z,8.97
2024-03-20T10:39:30.378Z,9.11
2024-03-20T10:41:30.339Z,9.38
2024-03-20T10:43:30.317Z,8.33
2024-03-20T10:45:30.361Z,9.62
2024-03-20T10:47:30.384Z,8.83
2024-03-20T10:49:30.341Z,9.38
2024-03-20T10:51:30.342Z,9.12
2024-03-20T10:53:30.376Z,9.27
2024-03-20T10:55:30.390Z,8.52
2024-03-20T10:57:30.407Z,9.54
2024-03-20T10:59:30.373Z,8.95
2024-03-20T11:01:30.376Z,9.26
2024-03-20T11:03:30.413Z,8.89
2024-03-20T11:05:30.444Z,8.64
2024-03-20T11:07:30.397Z,9.16
2024-03-20T11:08:30.437Z,8.11
2024-03-20T11:09:30.442Z,8.10
2024-03-20T11:11:30.456Z,8.37
2024-03-20T11:15:30.432Z,7.30
2024-03-20T11:17:30.412Z,7.88
2024-03-20T11:19:30.413Z,7.27
2024-03-20T11:21:30.470Z,7.37
2024-03-20T11:23:30.449Z,8.64
2024-03-20T11:25:30.455Z,8.33
2024-03-20T11:27:30.467Z,7.46
2024-03-20T11:29:30.487Z,7.61
2024-03-20T11:31:30.493Z,8.19
2024-03-20T11:33:30.458Z,8.26
2024-03-20T11:35:30.452Z,8.23
2024-03-20T11:37:30.518Z,8.66
2024-03-20T11:39:30.494Z,7.53
2024-03-20T11:41:30.489Z,8.22
2024-03-20T11:43:30.482Z,7.48
2024-03-20T11:45:30.518Z,8.44
2024-03-20T11:47:30.562Z,7.53
2024-03-20T11:49:30.508Z,9.14
2024-03-20T11:51:30.522Z,7.00
2024-03-20T11:53:30.837Z,8.13
2024-03-20T11:55:30.544Z,7.73
2024-03-20T11:57:30.575Z,7.22
2024-03-20T11:59:30.538Z,7.37
2024-03-20T12:01:30.528Z,6.65
2024-03-20T12:03:30.582Z,7.54
2024-03-20T12:05:30.573Z,7.14
2024-03-20T12:07:30.560Z,7.11
2024-03-20T12:09:30.580Z,6.79
2024-03-20T12:11:32.917Z,7.16
2024-03-20T12:13:30.596Z,7.01
2024-03-20T12:17:30.598Z,7.90
2024-03-20T12:19:30.574Z,8.27
2024-03-20T12:21:30.641Z,7.19
2024-03-20T12:24:30.635Z,6.83
2024-03-20T12:26:30.633Z,6.43
2024-03-20T12:28:30.617Z,6.24
2024-03-20T12:30:30.614Z,7.92
2024-03-20T12:32:30.666Z,8.23
2024-03-20T12:34:30.653Z,6.52
2024-03-20T12:36:30.627Z,7.18
2024-03-20T12:38:30.654Z,7.15
2024-03-20T12:40:30.660Z,6.82
2024-03-20T12:42:30.678Z,6.38
2024-03-20T12:44:30.687Z,6.80
2024-03-20T12:46:30.757Z,6.26
2024-03-20T12:48:30.659Z,6.61
2024-03-20T12:50:30.687Z,6.35
2024-03-20T12:52:30.736Z,6.28
2024-03-20T12:54:30.684Z,6.42
2024-03-20T12:56:30.677Z,4.66
2024-03-20T12:59:30.681Z,4.57
2024-03-20T13:01:30.686Z,4.17
2024-03-20T13:03:30.719Z,3.47
2024-03-20T13:05:30.746Z,3.76
2024-03-20T13:07:30.703Z,3.57
2024-03-20T13:09:30.724Z,2.96
2024-03-20T13:11:30.738Z,2.71
2024-03-20T13:13:30.761Z,2.47
2024-03-20T13:15:30.724Z,3.26
2024-03-20T13:17:30.764Z,3.15
2024-03-20T13:19:30.751Z,3.15
2024-03-20T13:21:30.775Z,3.26
2024-03-20T13:23:30.799Z,2.78
2024-03-20T13:25:30.772Z,2.93
2024-03-20T13:27:30.761Z,2.54
2024-03-20T13:29:30.795Z,3.37
2024-03-20T13:31:30.804Z,2.98
2024-03-20T13:33:30.779Z,2.27
2024-03-20T13:35:30.770Z,3.38
2024-03-20T13:37:30.768Z,2.78
2024-03-20T13:39:30.836Z,2.76
2024-03-20T13:40:30.791Z,2.66
2024-03-20T13:43:30.785Z,2.86
2024-03-20T13:44:30.836Z,2.68
2024-03-20T13:46:30.848Z,2.81
2024-03-20T13:48:30.816Z,2.15
2024-03-20T13:50:30.809Z,2.46
2024-03-20T13:52:30.883Z,2.78
2024-03-20T13:54:30.861Z,2.99
2024-03-20T13:56:30.831Z,2.53
2024-03-20T13:58:30.840Z,1.87
2024-03-20T14:01:30.853Z,2.88
2024-03-20T14:04:30.863Z,2.46
2024-03-20T14:06:30.855Z,2.66
2024-03-20T14:08:38.406Z,2.51
2024-03-20T14:10:30.908Z,2.38
2024-03-20T14:12:30.876Z,2.26
2024-03-20T14:14:30.869Z,2.17
2024-03-20T14:16:30.892Z,2.21
2024-03-20T14:18:30.918Z,1.95
2024-03-20T14:20:30.957Z,2.12
2024-03-20T14:22:30.894Z,2.64
2024-03-20T14:24:30.909Z,2.20
2024-03-20T14:27:30.923Z,2.39
2024-03-20T14:29:30.936Z,2.27
2024-03-20T14:32:30.954Z,2.59
2024-03-20T14:34:30.918Z,2.65
2024-03-20T14:36:30.963Z,2.82
2024-03-20T14:38:30.981Z,2.93
2024-03-20T14:40:30.941Z,2.68
2024-03-20T14:42:30.995Z,3.31
2024-03-20T14:44:30.978Z,2.91
2024-03-20T14:46:31.040Z,2.35
2024-03-20T14:48:30.959Z,2.85
2024-03-20T14:50:30.995Z,2.06
2024-03-20T14:53:31.014Z,2.04
2024-03-20T14:55:30.986Z,1.86
2024-03-20T14:57:31.028Z,2.13
2024-03-20T14:59:31.060Z,1.65
2024-03-20T15:01:31.047Z,2.29
2024-03-20T15:03:31.010Z,2.64
2024-03-20T15:05:31.021Z,2.00
2024-03-20T15:07:31.053Z,2.53
2024-03-20T15:09:31.054Z,2.82
2024-03-20T15:12:31.159Z,2.34
2024-03-20T15:14:31.064Z,2.64
2024-03-20T15:16:31.074Z,2.27
2024-03-20T15:18:31.059Z,2.45
2024-03-20T15:20:30.461Z,1.95
2024-03-20T15:22:30.415Z,1.76
2024-03-20T15:24:30.340Z,1.71
2024-03-20T15:27:30.345Z,1.81
2024-03-20T15:29:31.092Z,1.74
2024-03-20T15:31:31.069Z,1.60
2024-03-20T15:33:31.129Z,1.77
2024-03-20T15:35:31.127Z,1.60
2024-03-20T15:38:31.145Z,1.74
2024-03-20T15:40:31.142Z,1.79
2024-03-20T15:42:31.110Z,1.62
2024-03-20T15:44:31.116Z,2.02
2024-03-20T15:46:31.156Z,3.17
2024-03-20T15:48:31.162Z,2.91
2024-03-20T15:50:31.150Z,2.00
2024-03-20T15:52:31.144Z,2.20
2024-03-20T15:54:31.898Z,1.59
2024-03-20T15:56:31.229Z,2.21
2024-03-20T15:58:31.179Z,1.49
2024-03-20T16:00:31.167Z,1.92
2024-03-20T16:02:31.188Z,2.62
2024-03-20T16:04:31.201Z,2.64
2024-03-20T16:06:32.838Z,2.49
2024-03-20T16:08:31.177Z,2.23
2024-03-20T16:10:31.186Z,2.15
2024-03-20T16:12:31.173Z,3.07
2024-03-20T16:14:36.294Z,2.96
2024-03-20T16:16:31.273Z,2.28
2024-03-20T16:18:31.200Z,2.04
2024-03-20T16:20:31.208Z,2.77
2024-03-20T16:22:31.348Z,2.54
2024-03-20T16:24:32.366Z,2.17
2024-03-20T16:26:31.256Z,2.37
2024-03-20T16:28:31.247Z,2.18
2024-03-20T16:30:31.908Z,2.39
2024-03-20T16:32:31.290Z,2.54
2024-03-20T16:34:31.291Z,2.14
2024-03-20T16:36:31.811Z,2.13
2024-03-20T16:38:31.254Z,2.04
2024-03-20T16:40:31.266Z,2.18
2024-03-20T16:43:31.279Z,3.39
2024-03-20T16:45:31.308Z,3.17
2024-03-20T16:47:31.317Z,2.74
2024-03-20T16:49:31.290Z,2.55
2024-03-20T16:52:31.334Z,2.64
2024-03-20T16:54:31.938Z,2.45
2024-03-20T16:56:31.295Z,2.87
2024-03-20T16:58:31.306Z,2.71
2024-03-20T17:00:31.334Z,3.20
2024-03-20T17:02:31.353Z,2.81
2024-03-20T17:04:31.327Z,2.39
2024-03-20T17:06:31.334Z,2.87
2024-03-20T17:08:31.375Z,3.67
2024-03-20T17:10:31.369Z,3.85
2024-03-20T17:12:31.346Z,2.83
2024-03-20T17:14:31.358Z,2.95
2024-03-20T17:16:31.384Z,3.28
2024-03-20T17:18:31.398Z,2.63
2024-03-20T17:21:31.398Z,3.42
2024-03-20T17:23:31.445Z,3.33
2024-03-20T17:25:31.364Z,3.39
2024-03-20T17:27:31.376Z,3.53
2024-03-20T17:29:31.412Z,3.24
2024-03-20T17:31:31.425Z,3.60
2024-03-20T17:33:31.387Z,2.62
2024-03-20T17:36:31.435Z,3.07
2024-03-20T17:38:31.418Z,3.25
2024-03-20T17:40:31.425Z,3.04
2024-03-20T17:42:31.443Z,3.21
2024-03-20T17:44:31.462Z,3.27
2024-03-20T17:46:31.419Z,3.30
2024-03-20T17:49:31.477Z,3.26
2024-03-20T17:51:31.449Z,2.90
2024-03-20T17:53:31.410Z,3.23
2024-03-20T17:55:31.544Z,3.15
2024-03-20T17:57:31.487Z,3.42
2024-03-20T17:59:31.461Z,3.31
2024-03-20T18:01:31.482Z,3.13
2024-03-20T18:03:31.503Z,3.09
2024-03-20T18:05:31.505Z,8.95
2024-03-20T18:07:31.484Z,3.55
2024-03-20T18:09:31.492Z,3.44
2024-03-20T18:11:31.487Z,4.19
2024-03-20T18:13:31.537Z,3.96
2024-03-20T18:15:31.540Z,4.08
2024-03-20T18:17:31.515Z,4.94
2024-03-20T18:19:31.506Z,4.32
2024-03-20T18:21:31.571Z,4.16
2024-03-20T18:23:31.551Z,4.06
2024-03-20T18:25:31.517Z,4.65
2024-03-20T18:27:31.521Z,4.57
2024-03-20T18:29:31.570Z,4.02
2024-03-20T18:31:33.554Z,4.17
2024-03-20T18:33:31.535Z,4.55
2024-03-20T18:35:31.539Z,4.13
2024-03-20T18:37:31.602Z,3.80
2024-03-20T18:39:31.589Z,4.68
2024-03-20T18:41:37.286Z,4.13
2024-03-20T18:42:33.814Z,3.66
2024-03-20T18:44:31.593Z,3.56
2024-03-20T18:46:31.601Z,3.25
2024-03-20T18:48:31.609Z,3.49
2024-03-20T18:50:31.585Z,4.09
2024-03-20T18:52:31.630Z,3.22
2024-03-20T18:54:33.840Z,3.36
2024-03-20T18:56:31.636Z,3.37
2024-03-20T18:58:31.604Z,3.52
2024-03-20T19:00:31.663Z,3.29
2024-03-20T19:02:31.667Z,2.62
2024-03-20T19:04:31.637Z,3.51
2024-03-20T19:06:31.639Z,3.58
2024-03-20T19:08:31.636Z,3.03
2024-03-20T19:10:31.681Z,3.33
2024-03-20T19:12:31.703Z,3.19
2024-03-20T19:14:31.651Z,2.97
2024-03-20T19:16:31.660Z,3.59
2024-03-20T19:18:31.692Z,2.67
2024-03-20T19:20:31.726Z,3.03
2024-03-20T19:23:31.728Z,2.81
2024-03-20T19:25:31.710Z,4.34
2024-03-20T19:27:31.689Z,3.94
2024-03-20T19:29:31.699Z,2.99
2024-03-20T19:31:31.728Z,3.64
2024-03-20T19:33:31.742Z,3.48
2024-03-20T19:35:31.717Z,3.81
2024-03-20T19:37:31.700Z,3.47
2024-03-20T19:40:31.754Z,4.21
2024-03-20T19:42:31.720Z,3.51
2024-03-20T19:44:31.767Z,3.04
2024-03-20T19:46:31.764Z,2.95
2024-03-20T19:48:31.744Z,2.63
2024-03-20T19:50:31.752Z,3.84
2024-03-20T19:52:31.743Z,3.61
2024-03-20T19:54:31.821Z,3.88
2024-03-20T19:56:31.781Z,4.13
2024-03-20T19:58:31.759Z,4.41
2024-03-20T20:01:31.768Z,3.80
2024-03-20T20:03:31.765Z,3.01
2024-03-20T20:05:31.833Z,3.61
2024-03-20T20:07:31.819Z,3.92
2024-03-20T20:09:31.790Z,4.31
2024-03-20T20:11:31.830Z,4.28
2024-03-20T20:13:31.786Z,3.76
2024-03-20T20:15:31.843Z,3.86
2024-03-20T20:17:31.854Z,3.60
2024-03-20T20:23:31.873Z,3.47
2024-03-20T20:25:31.870Z,3.56
2024-03-20T20:27:31.843Z,3.68
2024-03-20T20:29:31.869Z,3.67
2024-03-20T20:31:31.879Z,4.51
2024-03-20T20:33:31.886Z,3.91
2024-03-20T20:35:31.882Z,13.10
2024-03-20T20:37:31.866Z,6.89
2024-03-20T20:39:31.850Z,4.77
2024-03-20T20:41:31.915Z,3.93
2024-03-20T20:43:31.897Z,4.31
2024-03-20T20:45:31.877Z,4.11
2024-03-20T20:47:31.887Z,4.13
2024-03-20T20:49:31.893Z,4.44
2024-03-20T20:51:31.929Z,4.38
2024-03-20T20:53:31.936Z,4.81
2024-03-20T20:55:31.908Z,5.04
2024-03-20T20:57:32.563Z,4.53
2024-03-20T20:59:31.934Z,5.12
2024-03-20T21:01:31.975Z,5.29
2024-03-20T21:03:31.947Z,4.83
2024-03-20T21:04:31.957Z,4.97
2024-03-20T21:05:31.937Z,6.00
2024-03-20T21:06:31.969Z,6.71
2024-03-20T21:07:31.944Z,8.18
2024-03-20T21:08:31.948Z,8.07
2024-03-20T21:09:31.987Z,6.77
2024-03-20T21:10:31.946Z,4.80
2024-03-20T21:11:31.979Z,5.28
2024-03-20T21:12:31.937Z,4.95
2024-03-20T21:13:31.945Z,4.92
2024-03-20T21:14:31.999Z,5.10
2024-03-20T21:15:31.943Z,5.81
2024-03-20T21:16:31.989Z,8.71
2024-03-20T21:17:31.992Z,10.20
2024-03-20T21:18:31.973Z,8.98
2024-03-20T21:20:32.294Z,5.38
2024-03-20T21:22:32.008Z,4.71
2024-03-20T21:24:32.002Z,4.62
2024-03-20T21:26:31.987Z,3.84
2024-03-20T21:28:32.007Z,3.76
2024-03-20T21:31:31.998Z,3.31
2024-03-20T21:33:31.999Z,3.58
2024-03-20T21:37:32.047Z,3.28
2024-03-20T21:39:32.030Z,3.77
2024-03-20T21:41:32.034Z,3.13
2024-03-20T21:43:32.067Z,3.21
2024-03-20T21:45:32.079Z,3.50
2024-03-20T21:47:32.054Z,5.68
2024-03-20T21:50:32.092Z,5.72
2024-03-20T21:52:32.068Z,5.04
2024-03-20T21:54:32.049Z,4.33
2024-03-20T21:56:32.107Z,7.38
2024-03-20T21:58:32.148Z,7.75
2024-03-20T22:00:32.067Z,6.55
2024-03-20T22:02:32.069Z,5.03
2024-03-20T22:04:32.074Z,4.38
2024-03-20T22:06:32.125Z,4.59
2024-03-20T22:08:40.011Z,4.63
2024-03-20T22:10:05.005Z,9.88
2024-03-20T22:10:32.104Z,7.63
2024-03-20T22:13:32.094Z,5.92
2024-03-20T22:15:32.122Z,5.63
2024-03-20T22:17:32.124Z,5.93
2024-03-20T22:19:32.144Z,5.58
2024-03-20T22:21:34.352Z,5.83
2024-03-20T22:23:32.131Z,5.81
2024-03-20T22:25:32.136Z,5.47
2024-03-20T22:27:32.184Z,6.11
2024-03-20T22:29:33.195Z,5.55
2024-03-20T22:31:32.154Z,5.46
2024-03-20T22:33:32.154Z,5.71
2024-03-20T22:36:32.157Z,5.91
2024-03-20T22:40:32.213Z,4.95
2024-03-20T22:42:32.215Z,5.29
2024-03-20T22:44:32.181Z,5.71
2024-03-20T22:47:32.227Z,5.53
2024-03-20T22:49:32.223Z,6.54
2024-03-20T22:51:32.194Z,5.74
2024-03-20T22:53:32.236Z,6.53
2024-03-20T22:55:32.242Z,6.19
2024-03-20T22:57:32.217Z,6.35
2024-03-20T22:59:32.217Z,6.54
2024-03-20T23:01:32.223Z,6.24
2024-03-20T23:03:32.262Z,5.84
2024-03-20T23:05:32.259Z,5.77
2024-03-20T23:07:32.241Z,8.45
2024-03-20T23:10:32.285Z,9.40
2024-03-20T23:12:32.258Z,9.28
2024-03-20T23:14:32.257Z,6.69
2024-03-20T23:16:32.290Z,6.00
2024-03-20T23:20:32.294Z,5.71
2024-03-20T23:22:32.257Z,5.49
2024-03-20T23:24:32.274Z,5.32
2024-03-20T23:26:32.325Z,5.84
2024-03-20T23:28:32.339Z,6.06
2024-03-20T23:32:32.296Z,6.23
2024-03-20T23:34:32.299Z,7.09
2024-03-20T23:36:32.336Z,6.48
2024-03-20T23:39:32.352Z,5.88
2024-03-20T23:41:32.371Z,5.12
2024-03-20T23:43:32.355Z,5.47
2024-03-20T23:45:32.320Z,4.97
2024-03-20T23:47:32.402Z,4.21
2024-03-20T23:49:32.372Z,4.79
2024-03-20T23:51:32.376Z,5.04
2024-03-20T23:53:32.362Z,4.59
2024-03-20T23:55:32.361Z,4.50
2024-03-20T23:57:32.388Z,4.53
